createdAt,value
2018-01-21T00:00:18.777Z,1005.61
2018-01-21T00:01:18.755Z,1005.58
2018-01-21T00:02:18.734Z,1005.58
2018-01-21T00:03:18.713Z,1005.56
2018-01-21T00:04:18.690Z,1005.65
2018-01-21T00:05:18.666Z,1005.71
2018-01-21T00:06:18.650Z,1005.72
2018-01-21T00:07:18.624Z,1005.73
2018-01-21T00:08:18.601Z,1005.71
2018-01-21T00:09:18.579Z,1005.76
2018-01-21T00:10:18.557Z,1005.78
2018-01-21T00:11:18.536Z,1005.86
2018-01-21T00:12:18.512Z,1005.88
2018-01-21T00:13:18.491Z,1005.91
2018-01-21T00:14:18.468Z,1005.92
2018-01-21T00:15:18.446Z,1005.96
2018-01-21T00:16:18.424Z,1006.00
2018-01-21T00:17:18.403Z,1006.02
2018-01-21T00:18:18.383Z,1006.04
2018-01-21T00:19:18.358Z,1006.06
2018-01-21T00:20:18.335Z,1006.06
2018-01-21T00:21:18.312Z,1006.07
2018-01-21T00:22:18.292Z,1006.13
2018-01-21T00:23:18.269Z,1006.12
2018-01-21T00:24:18.247Z,1006.18
2018-01-21T00:25:18.225Z,1006.17
2018-01-21T00:26:18.203Z,1006.21
2018-01-21T00:27:18.181Z,1006.23
2018-01-21T00:28:18.158Z,1006.25
2018-01-21T00:29:18.141Z,1006.25
2018-01-21T00:30:18.113Z,1006.28
2018-01-21T00:31:18.092Z,1006.31
2018-01-21T00:32:18.069Z,1006.38
2018-01-21T00:33:18.048Z,1006.43
2018-01-21T00:34:18.024Z,1006.46
2018-01-21T00:35:18.003Z,1006.46
2018-01-21T00:36:17.979Z,1006.47
2018-01-21T00:37:17.958Z,1006.42
2018-01-21T00:38:17.936Z,1006.43
2018-01-21T00:39:17.914Z,1006.48
2018-01-21T00:40:17.891Z,1006.50
2018-01-21T00:41:17.869Z,1006.53
2018-01-21T00:42:17.848Z,1006.54
2018-01-21T00:43:17.825Z,1006.54
2018-01-21T00:44:17.802Z,1006.58
2018-01-21T00:45:17.781Z,1006.59
2018-01-21T00:46:17.758Z,1006.61
2018-01-21T00:47:17.736Z,1006.65
2018-01-21T00:48:17.712Z,1006.66
2018-01-21T00:49:17.691Z,1006.69
2018-01-21T00:50:17.669Z,1006.65
2018-01-21T00:51:17.647Z,1006.74
2018-01-21T00:52:17.623Z,1006.72
2018-01-21T00:53:17.601Z,1006.74
2018-01-21T00:54:17.580Z,1006.64
2018-01-21T00:55:17.558Z,1006.61
2018-01-21T00:56:17.534Z,1006.60
2018-01-21T00:57:17.512Z,1006.65
2018-01-21T00:58:17.490Z,1006.67
2018-01-21T00:59:17.468Z,1006.72
2018-01-21T01:00:17.445Z,1006.79
2018-01-21T01:01:17.424Z,1006.78
2018-01-21T01:02:17.400Z,1006.80
2018-01-21T01:03:17.381Z,1006.86
2018-01-21T01:04:17.354Z,1006.91
2018-01-21T01:05:17.331Z,1006.94
2018-01-21T01:06:17.310Z,1006.96
2018-01-21T01:07:17.287Z,1007.00
2018-01-21T01:08:17.264Z,1007.03
2018-01-21T01:09:17.241Z,1007.10
2018-01-21T01:10:17.219Z,1007.14
2018-01-21T01:11:17.195Z,1007.13
2018-01-21T01:12:17.173Z,1007.15
2018-01-21T01:13:17.150Z,1007.16
2018-01-21T01:14:17.128Z,1007.20
2018-01-21T01:15:17.104Z,1007.20
2018-01-21T01:16:17.085Z,1007.25
2018-01-21T01:17:17.060Z,1007.27
2018-01-21T01:18:17.036Z,1007.29
2018-01-21T01:19:17.015Z,1007.33
2018-01-21T01:20:16.991Z,1007.33
2018-01-21T01:21:16.967Z,1007.36
2018-01-21T01:22:16.945Z,1007.41
2018-01-21T01:23:16.923Z,1007.41
2018-01-21T01:24:16.900Z,1007.44
2018-01-21T01:25:16.876Z,1007.46
2018-01-21T01:26:16.855Z,1007.49
2018-01-21T01:27:16.832Z,1007.54
2018-01-21T01:28:16.809Z,1007.56
2018-01-21T01:29:16.786Z,1007.60
2018-01-21T01:30:16.764Z,1007.64
2018-01-21T01:31:16.741Z,1007.69
2018-01-21T01:32:16.718Z,1007.69
2018-01-21T01:33:16.695Z,1007.68
2018-01-21T01:34:16.673Z,1007.70
2018-01-21T01:35:16.649Z,1007.75
2018-01-21T01:36:16.627Z,1007.76
2018-01-21T01:37:16.603Z,1007.77
2018-01-21T01:38:16.582Z,1007.82
2018-01-21T01:39:16.559Z,1007.84
2018-01-21T01:40:16.535Z,1007.88
2018-01-21T01:41:16.513Z,1007.88
2018-01-21T01:42:16.491Z,1007.93
2018-01-21T01:43:16.468Z,1007.91
2018-01-21T01:44:16.445Z,1007.92
2018-01-21T01:45:16.422Z,1007.95
2018-01-21T01:46:16.399Z,1007.96
2018-01-21T01:47:16.377Z,1007.98
2018-01-21T01:48:16.352Z,1008.02
2018-01-21T01:49:16.330Z,1008.06
2018-01-21T01:50:16.308Z,1008.10
2018-01-21T01:51:16.285Z,1008.16
2018-01-21T01:52:16.260Z,1008.17
2018-01-21T01:53:16.239Z,1008.18
2018-01-21T01:54:16.215Z,1008.20
2018-01-21T01:55:16.194Z,1008.20
2018-01-21T01:56:16.168Z,1008.25
2018-01-21T01:57:16.147Z,1008.26
2018-01-21T01:58:16.129Z,1008.31
2018-01-21T01:59:16.101Z,1008.31
2018-01-21T02:00:16.078Z,1008.33
2018-01-21T02:01:16.058Z,1008.36
2018-01-21T02:02:16.033Z,1008.40
2018-01-21T02:03:16.010Z,1008.42
2018-01-21T02:04:15.986Z,1008.43
2018-01-21T02:05:15.964Z,1008.40
2018-01-21T02:06:15.941Z,1008.43
2018-01-21T02:07:15.918Z,1008.48
2018-01-21T02:08:15.895Z,1008.48
2018-01-21T02:09:15.877Z,1008.50
2018-01-21T02:10:15.849Z,1008.47
2018-01-21T02:11:15.826Z,1008.52
2018-01-21T02:12:15.804Z,1008.53
2018-01-21T02:13:15.778Z,1008.57
2018-01-21T02:14:15.756Z,1008.56
2018-01-21T02:15:15.733Z,1008.62
2018-01-21T02:16:15.712Z,1008.60
2018-01-21T02:17:15.687Z,1008.61
2018-01-21T02:18:15.666Z,1008.62
2018-01-21T02:19:15.642Z,1008.60
2018-01-21T02:20:15.618Z,1008.66
2018-01-21T02:21:15.595Z,1008.69
2018-01-21T02:22:15.576Z,1008.72
2018-01-21T02:23:15.550Z,1008.74
2018-01-21T02:24:15.526Z,1008.71
2018-01-21T02:25:15.504Z,1008.72
2018-01-21T02:26:15.483Z,1008.75
2018-01-21T02:27:15.457Z,1008.76
2018-01-21T02:28:15.435Z,1008.77
2018-01-21T02:29:15.411Z,1008.74
2018-01-21T02:30:15.389Z,1008.78
2018-01-21T02:31:15.367Z,1008.81
2018-01-21T02:32:15.343Z,1008.82
2018-01-21T02:33:15.319Z,1008.86
2018-01-21T02:34:15.298Z,1008.87
2018-01-21T02:35:15.274Z,1008.93
2018-01-21T02:36:15.251Z,1008.93
2018-01-21T02:37:15.227Z,1008.95
2018-01-21T02:38:15.208Z,1008.90
2018-01-21T02:39:15.182Z,1008.89
2018-01-21T02:40:15.159Z,1008.93
2018-01-21T02:41:15.136Z,1008.97
2018-01-21T02:42:15.112Z,1008.95
2018-01-21T02:43:15.090Z,1008.97
2018-01-21T02:44:15.066Z,1008.98
2018-01-21T02:45:15.044Z,1008.96
2018-01-21T02:46:15.020Z,1008.99
2018-01-21T02:47:14.998Z,1008.97
2018-01-21T02:48:14.981Z,1009.00
2018-01-21T02:49:14.951Z,1009.00
2018-01-21T02:50:14.928Z,1009.01
2018-01-21T02:51:14.905Z,1009.01
2018-01-21T02:52:14.881Z,1009.02
2018-01-21T02:53:14.857Z,1009.02
2018-01-21T02:54:14.835Z,1009.03
2018-01-21T02:55:14.813Z,1009.05
2018-01-21T02:56:14.794Z,1009.08
2018-01-21T02:57:14.764Z,1009.07
2018-01-21T02:58:14.747Z,1009.12
2018-01-21T02:59:14.721Z,1009.13
2018-01-21T03:00:14.696Z,1009.13
2018-01-21T03:01:14.674Z,1009.17
2018-01-21T03:02:14.650Z,1009.20
2018-01-21T03:03:14.629Z,1009.22
2018-01-21T03:04:14.602Z,1009.25
2018-01-21T03:05:14.580Z,1009.24
2018-01-21T03:06:14.559Z,1009.25
2018-01-21T03:07:14.534Z,1009.23
2018-01-21T03:08:14.511Z,1009.23
2018-01-21T03:09:14.488Z,1009.26
2018-01-21T03:10:14.465Z,1009.29
2018-01-21T03:11:14.444Z,1009.30
2018-01-21T03:12:14.418Z,1009.28
2018-01-21T03:13:14.395Z,1009.31
2018-01-21T03:14:14.373Z,1009.33
2018-01-21T03:15:14.349Z,1009.33
2018-01-21T03:16:14.326Z,1009.40
2018-01-21T03:17:14.303Z,1009.40
2018-01-21T03:18:14.279Z,1009.41
2018-01-21T03:19:14.257Z,1009.47
2018-01-21T03:20:14.233Z,1009.47
2018-01-21T03:21:14.211Z,1009.49
2018-01-21T03:22:14.188Z,1009.53
2018-01-21T03:23:14.165Z,1009.59
2018-01-21T03:24:14.141Z,1009.57
2018-01-21T03:25:14.118Z,1009.58
2018-01-21T03:26:14.094Z,1009.58
2018-01-21T03:27:14.073Z,1009.57
2018-01-21T03:28:14.048Z,1009.64
2018-01-21T03:29:14.026Z,1009.60
2018-01-21T03:30:14.008Z,1009.64
2018-01-21T03:31:13.979Z,1009.67
2018-01-21T03:32:13.955Z,1009.71
2018-01-21T03:33:13.933Z,1009.79
2018-01-21T03:34:13.910Z,1009.80
2018-01-21T03:35:13.886Z,1009.79
2018-01-21T03:36:13.863Z,1009.82
2018-01-21T03:37:13.840Z,1009.85
2018-01-21T03:38:13.817Z,1009.87
2018-01-21T03:39:13.794Z,1009.93
2018-01-21T03:40:13.770Z,1009.94
2018-01-21T03:41:13.747Z,1009.97
2018-01-21T03:42:13.724Z,1009.99
2018-01-21T03:43:13.701Z,1010.01
2018-01-21T03:44:13.679Z,1010.00
2018-01-21T03:45:13.654Z,1010.04
2018-01-21T03:46:13.632Z,1010.05
2018-01-21T03:47:13.609Z,1010.02
2018-01-21T03:48:13.585Z,1010.08
2018-01-21T03:49:13.562Z,1010.07
2018-01-21T03:50:13.539Z,1010.08
2018-01-21T03:51:13.516Z,1010.08
2018-01-21T03:52:13.491Z,1010.08
2018-01-21T03:53:13.470Z,1010.08
2018-01-21T03:54:13.445Z,1010.10
2018-01-21T03:55:13.423Z,1010.13
2018-01-21T03:56:13.399Z,1010.14
2018-01-21T03:57:13.377Z,1010.17
2018-01-21T03:58:13.354Z,1010.18
2018-01-21T03:59:13.330Z,1010.19
2018-01-21T04:00:13.307Z,1010.20
2018-01-21T04:01:13.284Z,1010.21
2018-01-21T04:02:13.261Z,1010.25
2018-01-21T04:03:13.238Z,1010.24
2018-01-21T04:04:13.216Z,1010.25
2018-01-21T04:05:13.193Z,1010.28
2018-01-21T04:06:13.169Z,1010.24
2018-01-21T04:07:13.147Z,1010.26
2018-01-21T04:08:13.127Z,1010.29
2018-01-21T04:09:13.100Z,1010.32
2018-01-21T04:10:13.078Z,1010.33
2018-01-21T04:11:13.055Z,1010.33
2018-01-21T04:12:13.032Z,1010.37
2018-01-21T04:13:13.009Z,1010.40
2018-01-21T04:14:12.986Z,1010.39
2018-01-21T04:15:12.964Z,1010.41
2018-01-21T04:16:12.940Z,1010.45
2018-01-21T04:17:12.918Z,1010.44
2018-01-21T04:18:12.895Z,1010.51
2018-01-21T04:19:12.873Z,1010.51
2018-01-21T04:20:12.850Z,1010.53
2018-01-21T04:21:12.828Z,1010.57
2018-01-21T04:22:12.805Z,1010.59
2018-01-21T04:23:12.781Z,1010.60
2018-01-21T04:24:12.759Z,1010.62
2018-01-21T04:25:12.736Z,1010.63
2018-01-21T04:26:12.715Z,1010.65
2018-01-21T04:27:12.692Z,1010.67
2018-01-21T04:28:12.669Z,1010.62
2018-01-21T04:29:12.646Z,1010.70
2018-01-21T04:30:12.624Z,1010.68
2018-01-21T04:31:12.601Z,1010.72
2018-01-21T04:32:12.578Z,1010.74
2018-01-21T04:33:12.555Z,1010.75
2018-01-21T04:34:12.533Z,1010.84
2018-01-21T04:35:12.511Z,1010.82
2018-01-21T04:36:12.488Z,1010.84
2018-01-21T04:37:12.468Z,1010.86
2018-01-21T04:38:12.442Z,1010.90
2018-01-21T04:39:12.421Z,1010.88
2018-01-21T04:40:12.396Z,1010.92
2018-01-21T04:41:12.375Z,1010.93
2018-01-21T04:42:12.352Z,1010.95
2018-01-21T04:43:12.331Z,1010.99
2018-01-21T04:44:12.309Z,1010.98
2018-01-21T04:45:12.285Z,1011.01
2018-01-21T04:46:12.262Z,1011.04
2018-01-21T04:47:12.240Z,1011.06
2018-01-21T04:48:12.217Z,1011.04
2018-01-21T04:49:12.195Z,1011.06
2018-01-21T04:50:12.171Z,1011.05
2018-01-21T04:51:12.205Z,1011.06
2018-01-21T04:52:12.133Z,1011.09
2018-01-21T04:53:12.104Z,1011.07
2018-01-21T04:54:12.082Z,1011.06
2018-01-21T04:55:12.059Z,1011.10
2018-01-21T04:56:12.034Z,1011.11
2018-01-21T04:57:12.012Z,1011.12
2018-01-21T04:58:11.989Z,1011.15
2018-01-21T04:59:11.968Z,1011.15
2018-01-21T05:00:11.944Z,1011.17
2018-01-21T05:01:11.922Z,1011.23
2018-01-21T05:02:11.899Z,1011.24
2018-01-21T05:03:11.876Z,1011.26
2018-01-21T05:04:11.853Z,1011.25
2018-01-21T05:05:11.835Z,1011.26
2018-01-21T05:06:11.807Z,1011.26
2018-01-21T05:07:11.784Z,1011.30
2018-01-21T05:08:11.762Z,1011.34
2018-01-21T05:09:11.738Z,1011.35
2018-01-21T05:10:11.715Z,1011.33
2018-01-21T05:11:11.694Z,1011.37
2018-01-21T05:12:11.669Z,1011.42
2018-01-21T05:13:11.646Z,1011.43
2018-01-21T05:14:11.625Z,1011.42
2018-01-21T05:15:11.602Z,1011.45
2018-01-21T05:16:11.577Z,1011.44
2018-01-21T05:17:11.555Z,1011.48
2018-01-21T05:18:11.533Z,1011.45
2018-01-21T05:19:11.510Z,1011.47
2018-01-21T05:20:11.485Z,1011.49
2018-01-21T05:21:11.464Z,1011.46
2018-01-21T05:22:11.440Z,1011.52
2018-01-21T05:23:11.418Z,1011.54
2018-01-21T05:24:11.394Z,1011.55
2018-01-21T05:25:11.371Z,1011.52
2018-01-21T05:26:11.350Z,1011.53
2018-01-21T05:27:11.328Z,1011.56
2018-01-21T05:28:11.304Z,1011.56
2018-01-21T05:29:11.280Z,1011.56
2018-01-21T05:30:11.258Z,1011.55
2018-01-21T05:31:11.235Z,1011.55
2018-01-21T05:32:11.212Z,1011.51
2018-01-21T05:33:11.191Z,1011.53
2018-01-21T05:34:11.167Z,1011.53
2018-01-21T05:35:11.144Z,1011.52
2018-01-21T05:36:11.120Z,1011.55
2018-01-21T05:37:11.097Z,1011.56
2018-01-21T05:38:11.076Z,1011.58
2018-01-21T05:39:11.058Z,1011.59
2018-01-21T05:40:11.029Z,1011.57
2018-01-21T05:41:11.007Z,1011.59
2018-01-21T05:42:10.985Z,1011.63
2018-01-21T05:43:10.964Z,1011.67
2018-01-21T05:44:10.939Z,1011.64
2018-01-21T05:45:10.934Z,1011.68
2018-01-21T05:46:10.893Z,1011.67
2018-01-21T05:47:10.871Z,1011.69
2018-01-21T05:48:10.847Z,1011.74
2018-01-21T05:49:10.825Z,1011.74
2018-01-21T05:50:10.802Z,1011.81
2018-01-21T05:51:10.779Z,1011.79
2018-01-21T05:52:10.754Z,1011.81
2018-01-21T05:53:10.735Z,1011.82
2018-01-21T05:54:10.711Z,1011.89
2018-01-21T05:55:10.687Z,1011.88
2018-01-21T05:56:10.662Z,1011.95
2018-01-21T05:57:10.641Z,1011.95
2018-01-21T05:58:10.619Z,1011.99
2018-01-21T05:59:10.595Z,1012.05
2018-01-21T06:00:10.573Z,1012.05
2018-01-21T06:01:10.551Z,1012.05
2018-01-21T06:02:10.527Z,1012.09
2018-01-21T06:03:10.505Z,1012.08
2018-01-21T06:04:10.481Z,1012.09
2018-01-21T06:05:10.459Z,1012.12
2018-01-21T06:06:10.437Z,1012.16
2018-01-21T06:07:10.414Z,1012.14
2018-01-21T06:08:10.390Z,1012.13
2018-01-21T06:09:10.368Z,1012.19
2018-01-21T06:10:10.346Z,1012.22
2018-01-21T06:11:10.323Z,1012.25
2018-01-21T06:12:10.300Z,1012.26
2018-01-21T06:13:10.277Z,1012.25
2018-01-21T06:14:10.253Z,1012.25
2018-01-21T06:15:10.232Z,1012.27
2018-01-21T06:16:10.209Z,1012.26
2018-01-21T06:17:10.185Z,1012.31
2018-01-21T06:18:10.164Z,1012.34
2018-01-21T06:19:10.141Z,1012.37
2018-01-21T06:20:10.117Z,1012.37
2018-01-21T06:21:10.095Z,1012.39
2018-01-21T06:22:10.072Z,1012.39
2018-01-21T06:23:10.049Z,1012.43
2018-01-21T06:24:10.027Z,1012.49
2018-01-21T06:25:10.004Z,1012.48
2018-01-21T06:26:09.981Z,1012.48
2018-01-21T06:27:09.959Z,1012.55
2018-01-21T06:28:09.935Z,1012.54
2018-01-21T06:29:09.912Z,1012.64
2018-01-21T06:30:09.891Z,1012.59
2018-01-21T06:31:09.868Z,1012.64
2018-01-21T06:32:09.844Z,1012.66
2018-01-21T06:33:09.822Z,1012.69
2018-01-21T06:34:09.800Z,1012.68
2018-01-21T06:35:09.778Z,1012.71
2018-01-21T06:36:09.754Z,1012.69
2018-01-21T06:37:09.730Z,1012.70
2018-01-21T06:38:09.708Z,1012.72
2018-01-21T06:39:09.686Z,1012.76
2018-01-21T06:40:09.668Z,1012.75
2018-01-21T06:41:09.639Z,1012.77
2018-01-21T06:42:09.618Z,1012.75
2018-01-21T06:43:09.596Z,1012.77
2018-01-21T06:44:09.571Z,1012.81
2018-01-21T06:45:09.549Z,1012.85
2018-01-21T06:46:09.527Z,1012.91
2018-01-21T06:47:09.503Z,1012.91
2018-01-21T06:48:09.481Z,1012.86
2018-01-21T06:49:09.458Z,1012.92
2018-01-21T06:50:09.435Z,1012.94
2018-01-21T06:51:09.412Z,1012.99
2018-01-21T06:52:09.390Z,1013.00
2018-01-21T06:53:09.371Z,1013.05
2018-01-21T06:54:09.345Z,1013.05
2018-01-21T06:55:09.322Z,1013.04
2018-01-21T06:56:09.297Z,1013.08
2018-01-21T06:57:09.278Z,1013.08
2018-01-21T06:58:09.258Z,1013.14
2018-01-21T06:59:09.230Z,1013.20
2018-01-21T07:00:09.206Z,1013.23
2018-01-21T07:01:09.184Z,1013.23
2018-01-21T07:02:09.162Z,1013.18
2018-01-21T07:03:09.139Z,1013.23
2018-01-21T07:04:09.116Z,1013.24
2018-01-21T07:05:09.093Z,1013.26
2018-01-21T07:06:09.069Z,1013.30
2018-01-21T07:07:09.047Z,1013.33
2018-01-21T07:08:09.028Z,1013.35
2018-01-21T07:09:09.002Z,1013.36
2018-01-21T07:10:08.979Z,1013.39
2018-01-21T07:11:08.957Z,1013.38
2018-01-21T07:12:08.933Z,1013.39
2018-01-21T07:13:08.911Z,1013.41
2018-01-21T07:14:08.889Z,1013.41
2018-01-21T07:15:08.867Z,1013.44
2018-01-21T07:16:08.842Z,1013.44
2018-01-21T07:17:08.819Z,1013.46
2018-01-21T07:18:08.796Z,1013.46
2018-01-21T07:19:08.776Z,1013.50
2018-01-21T07:20:08.752Z,1013.51
2018-01-21T07:21:08.729Z,1013.54
2018-01-21T07:22:08.706Z,1013.59
2018-01-21T07:23:08.684Z,1013.57
2018-01-21T07:24:08.661Z,1013.62
2018-01-21T07:25:08.638Z,1013.65
2018-01-21T07:26:08.617Z,1013.68
2018-01-21T07:27:08.593Z,1013.68
2018-01-21T07:28:08.571Z,1013.69
2018-01-21T07:29:08.547Z,1013.70
2018-01-21T07:30:08.524Z,1013.74
2018-01-21T07:31:08.502Z,1013.76
2018-01-21T07:32:08.478Z,1013.75
2018-01-21T07:33:08.456Z,1013.79
2018-01-21T07:34:08.434Z,1013.82
2018-01-21T07:35:08.410Z,1013.82
2018-01-21T07:36:08.386Z,1013.85
2018-01-21T07:37:08.365Z,1013.85
2018-01-21T07:38:08.347Z,1013.88
2018-01-21T07:39:08.320Z,1013.92
2018-01-21T07:40:08.298Z,1013.93
2018-01-21T07:41:08.274Z,1013.96
2018-01-21T07:42:08.252Z,1013.97
2018-01-21T07:43:08.229Z,1014.01
2018-01-21T07:44:08.213Z,1014.07
2018-01-21T07:45:08.182Z,1014.07
2018-01-21T07:46:08.161Z,1014.08
2018-01-21T07:47:08.138Z,1014.14
2018-01-21T07:48:08.115Z,1014.15
2018-01-21T07:49:08.094Z,1014.16
2018-01-21T07:50:08.070Z,1014.19
2018-01-21T07:51:08.052Z,1014.20
2018-01-21T07:52:08.026Z,1014.26
2018-01-21T07:53:08.003Z,1014.29
2018-01-21T07:54:07.980Z,1014.31
2018-01-21T07:55:07.959Z,1014.31
2018-01-21T07:56:07.935Z,1014.36
2018-01-21T07:57:07.913Z,1014.42
2018-01-21T07:58:07.891Z,1014.39
2018-01-21T07:59:07.869Z,1014.44
2018-01-21T08:00:07.844Z,1014.43
2018-01-21T08:01:07.823Z,1014.47
2018-01-21T08:02:07.865Z,1014.48
2018-01-21T08:03:07.779Z,1014.49
2018-01-21T08:04:07.756Z,1014.47
2018-01-21T08:05:07.734Z,1014.47
2018-01-21T08:06:07.712Z,1014.53
2018-01-21T08:07:07.692Z,1014.49
2018-01-21T08:08:07.667Z,1014.58
2018-01-21T08:09:07.645Z,1014.58
2018-01-21T08:10:07.623Z,1014.54
2018-01-21T08:11:07.599Z,1014.60
2018-01-21T08:12:07.577Z,1014.62
2018-01-21T08:13:07.555Z,1014.63
2018-01-21T08:14:07.533Z,1014.60
2018-01-21T08:15:07.511Z,1014.62
2018-01-21T08:16:07.491Z,1014.63
2018-01-21T08:17:07.469Z,1014.62
2018-01-21T08:18:07.444Z,1014.64
2018-01-21T08:19:07.423Z,1014.67
2018-01-21T08:20:07.400Z,1014.69
2018-01-21T08:21:07.377Z,1014.70
2018-01-21T08:22:07.355Z,1014.73
2018-01-21T08:23:07.332Z,1014.69
2018-01-21T08:24:07.310Z,1014.65
2018-01-21T08:25:07.288Z,1014.67
2018-01-21T08:26:07.268Z,1014.69
2018-01-21T08:27:07.245Z,1014.66
2018-01-21T08:28:07.221Z,1014.67
2018-01-21T08:29:07.199Z,1014.66
2018-01-21T08:30:07.177Z,1014.64
2018-01-21T08:31:07.155Z,1014.66
2018-01-21T08:32:07.131Z,1014.71
2018-01-21T08:33:07.109Z,1014.70
2018-01-21T08:34:07.088Z,1014.73
2018-01-21T08:35:07.066Z,1014.75
2018-01-21T08:36:07.043Z,1014.75
2018-01-21T08:37:07.021Z,1014.72
2018-01-21T08:38:06.999Z,1014.73
2018-01-21T08:39:06.977Z,1014.73
2018-01-21T08:40:06.954Z,1014.76
2018-01-21T08:41:06.933Z,1014.74
2018-01-21T08:42:06.911Z,1014.77
2018-01-21T08:43:06.888Z,1014.75
2018-01-21T08:44:06.864Z,1014.82
2018-01-21T08:45:06.844Z,1014.82
2018-01-21T08:46:06.822Z,1014.79
2018-01-21T08:47:06.800Z,1014.84
2018-01-21T08:48:06.777Z,1014.86
2018-01-21T08:49:06.756Z,1014.88
2018-01-21T08:50:06.735Z,1014.88
2018-01-21T08:51:06.712Z,1014.87
2018-01-21T08:52:06.689Z,1014.89
2018-01-21T08:53:06.667Z,1014.91
2018-01-21T08:54:06.645Z,1014.90
2018-01-21T08:55:06.624Z,1014.92
2018-01-21T08:56:06.602Z,1014.96
2018-01-21T08:57:06.580Z,1014.97
2018-01-21T08:58:06.608Z,1014.99
2018-01-21T08:59:06.536Z,1015.05
2018-01-21T09:00:06.517Z,1015.02
2018-01-21T09:01:06.492Z,1015.05
2018-01-21T09:02:06.471Z,1015.08
2018-01-21T09:03:06.449Z,1015.07
2018-01-21T09:04:06.425Z,1015.09
2018-01-21T09:05:06.404Z,1015.08
2018-01-21T09:06:06.384Z,1015.09
2018-01-21T09:07:06.361Z,1015.10
2018-01-21T09:08:06.339Z,1015.11
2018-01-21T09:09:06.318Z,1015.14
2018-01-21T09:10:06.297Z,1015.14
2018-01-21T09:11:06.275Z,1015.11
2018-01-21T09:12:06.252Z,1015.18
2018-01-21T09:13:06.233Z,1015.20
2018-01-21T09:14:06.210Z,1015.21
2018-01-21T09:15:06.190Z,1015.19
2018-01-21T09:16:06.168Z,1015.23
2018-01-21T09:17:06.146Z,1015.20
2018-01-21T09:18:06.129Z,1015.26
2018-01-21T09:19:06.106Z,1015.22
2018-01-21T09:20:06.083Z,1015.25
2018-01-21T09:21:06.066Z,1015.25
2018-01-21T09:22:06.059Z,1015.31
2018-01-21T09:23:06.020Z,1015.32
2018-01-21T09:24:05.999Z,1015.31
2018-01-21T09:25:05.979Z,1015.34
2018-01-21T09:26:05.959Z,1015.34
2018-01-21T09:27:05.937Z,1015.34
2018-01-21T09:28:05.915Z,1015.42
2018-01-21T09:29:05.895Z,1015.40
2018-01-21T09:30:05.908Z,1015.40
2018-01-21T09:31:05.854Z,1015.42
2018-01-21T09:32:05.833Z,1015.44
2018-01-21T09:33:05.812Z,1015.44
2018-01-21T09:34:05.791Z,1015.52
2018-01-21T09:35:05.774Z,1015.52
2018-01-21T09:36:05.751Z,1015.48
2018-01-21T09:37:05.730Z,1015.52
2018-01-21T09:38:05.752Z,1015.52
2018-01-21T09:39:05.689Z,1015.55
2018-01-21T09:40:05.667Z,1015.57
2018-01-21T09:41:05.651Z,1015.57
2018-01-21T09:42:05.630Z,1015.60
2018-01-21T09:43:05.607Z,1015.61
2018-01-21T09:44:05.585Z,1015.64
2018-01-21T09:45:05.570Z,1015.67
2018-01-21T09:46:05.552Z,1015.71
2018-01-21T09:47:05.525Z,1015.75
2018-01-21T09:48:05.504Z,1015.81
2018-01-21T09:49:05.484Z,1015.83
2018-01-21T09:50:05.466Z,1015.84
2018-01-21T09:51:05.443Z,1015.87
2018-01-21T09:52:05.422Z,1015.90
2018-01-21T09:53:05.402Z,1015.92
2018-01-21T09:54:05.383Z,1015.91
2018-01-21T09:55:05.362Z,1015.89
2018-01-21T09:56:05.341Z,1015.88
2018-01-21T09:57:05.361Z,1015.89
2018-01-21T09:58:05.304Z,1015.89
2018-01-21T09:59:05.282Z,1015.86
2018-01-21T10:00:05.260Z,1015.86
2018-01-21T10:01:05.240Z,1015.90
2018-01-21T10:02:05.221Z,1015.89
2018-01-21T10:03:05.201Z,1015.90
2018-01-21T10:04:05.179Z,1015.93
2018-01-21T10:05:05.161Z,1015.96
2018-01-21T10:06:05.141Z,1016.06
2018-01-21T10:07:05.127Z,1016.05
2018-01-21T10:08:05.101Z,1016.09
2018-01-21T10:09:05.081Z,1016.09
2018-01-21T10:10:05.062Z,1016.09
2018-01-21T10:11:05.042Z,1016.12
2018-01-21T10:12:05.022Z,1016.14
2018-01-21T10:13:05.001Z,1016.13
2018-01-21T10:14:04.982Z,1016.17
2018-01-21T10:15:04.966Z,1016.15
2018-01-21T10:16:04.943Z,1016.16
2018-01-21T10:17:04.923Z,1016.16
2018-01-21T10:18:04.904Z,1016.14
2018-01-21T10:19:04.884Z,1016.15
2018-01-21T10:20:04.864Z,1016.18
2018-01-21T10:21:04.844Z,1016.19
2018-01-21T10:22:04.825Z,1016.20
2018-01-21T10:23:04.804Z,1016.22
2018-01-21T10:24:04.784Z,1016.24
2018-01-21T10:25:04.764Z,1016.23
2018-01-21T10:26:04.744Z,1016.22
2018-01-21T10:27:04.725Z,1016.20
2018-01-21T10:28:04.704Z,1016.21
2018-01-21T10:29:04.684Z,1016.23
2018-01-21T10:30:04.664Z,1016.26
2018-01-21T10:31:04.644Z,1016.29
2018-01-21T10:32:04.622Z,1016.32
2018-01-21T10:33:04.606Z,1016.30
2018-01-21T10:34:04.584Z,1016.31
2018-01-21T10:35:04.563Z,1016.34
2018-01-21T10:36:04.543Z,1016.31
2018-01-21T10:37:04.524Z,1016.35
2018-01-21T10:38:04.504Z,1016.34
2018-01-21T10:39:04.483Z,1016.34
2018-01-21T10:40:04.463Z,1016.35
2018-01-21T10:41:04.444Z,1016.32
2018-01-21T10:42:04.424Z,1016.32
2018-01-21T10:43:04.404Z,1016.31
2018-01-21T10:44:04.382Z,1016.29
2018-01-21T10:45:04.368Z,1016.31
2018-01-21T10:46:04.345Z,1016.31
2018-01-21T10:47:04.324Z,1016.31
2018-01-21T10:48:04.306Z,1016.38
2018-01-21T10:49:04.286Z,1016.36
2018-01-21T10:50:04.267Z,1016.34
2018-01-21T10:51:04.247Z,1016.39
2018-01-21T10:52:04.228Z,1016.37
2018-01-21T10:53:04.208Z,1016.41
2018-01-21T10:54:04.187Z,1016.36
2018-01-21T10:55:04.169Z,1016.38
2018-01-21T10:56:04.149Z,1016.34
2018-01-21T10:57:04.128Z,1016.35
2018-01-21T10:58:04.110Z,1016.39
2018-01-21T10:59:04.092Z,1016.39
2018-01-21T11:00:04.071Z,1016.44
2018-01-21T11:01:04.053Z,1016.43
2018-01-21T11:02:04.033Z,1016.43
2018-01-21T11:03:04.019Z,1016.44
2018-01-21T11:04:04.001Z,1016.45
2018-01-21T11:05:03.977Z,1016.42
2018-01-21T11:06:03.957Z,1016.42
2018-01-21T11:07:03.938Z,1016.41
2018-01-21T11:08:03.919Z,1016.38
2018-01-21T11:09:03.900Z,1016.40
2018-01-21T11:10:03.882Z,1016.39
2018-01-21T11:11:03.862Z,1016.44
2018-01-21T11:12:03.843Z,1016.46
2018-01-21T11:13:03.866Z,1016.51
2018-01-21T11:14:03.806Z,1016.48
2018-01-21T11:15:03.788Z,1016.50
2018-01-21T11:16:03.769Z,1016.52
2018-01-21T11:17:03.755Z,1016.56
2018-01-21T11:18:03.731Z,1016.57
2018-01-21T11:19:03.712Z,1016.52
2018-01-21T11:20:03.692Z,1016.49
2018-01-21T11:21:03.674Z,1016.49
2018-01-21T11:22:03.655Z,1016.47
2018-01-21T11:23:03.635Z,1016.47
2018-01-21T11:24:03.616Z,1016.49
2018-01-21T11:25:03.597Z,1016.42
2018-01-21T11:26:03.579Z,1016.37
2018-01-21T11:27:03.560Z,1016.37
2018-01-21T11:28:03.540Z,1016.33
2018-01-21T11:29:03.520Z,1016.34
2018-01-21T11:30:03.505Z,1016.35
2018-01-21T11:31:03.484Z,1016.32
2018-01-21T11:32:03.464Z,1016.36
2018-01-21T11:33:03.446Z,1016.37
2018-01-21T11:34:03.427Z,1016.38
2018-01-21T11:35:03.409Z,1016.39
2018-01-21T11:36:03.389Z,1016.39
2018-01-21T11:37:03.371Z,1016.44
2018-01-21T11:38:03.352Z,1016.48
2018-01-21T11:39:03.333Z,1016.43
2018-01-21T11:40:03.316Z,1016.46
2018-01-21T11:41:03.297Z,1016.43
2018-01-21T11:42:03.278Z,1016.43
2018-01-21T11:43:03.267Z,1016.40
2018-01-21T11:44:03.241Z,1016.46
2018-01-21T11:45:03.223Z,1016.44
2018-01-21T11:46:03.205Z,1016.40
2018-01-21T11:47:03.187Z,1016.41
2018-01-21T11:48:03.168Z,1016.47
2018-01-21T11:49:03.150Z,1016.40
2018-01-21T11:50:03.131Z,1016.40
2018-01-21T11:51:03.117Z,1016.43
2018-01-21T11:52:03.094Z,1016.44
2018-01-21T11:53:03.076Z,1016.42
2018-01-21T11:54:03.059Z,1016.40
2018-01-21T11:55:03.041Z,1016.36
2018-01-21T11:56:03.022Z,1016.32
2018-01-21T11:57:03.005Z,1016.31
2018-01-21T11:58:03.024Z,1016.38
2018-01-21T11:59:02.970Z,1016.31
2018-01-21T12:00:02.950Z,1016.31
2018-01-21T12:01:02.933Z,1016.30
2018-01-21T12:02:02.914Z,1016.31
2018-01-21T12:03:02.897Z,1016.31
2018-01-21T12:04:02.878Z,1016.29
2018-01-21T12:05:02.862Z,1016.31